Time;durP1;ratioP1;P1;durP2;ratioP2;P2;SDS_P1;SDS_P2;PMS_P1;PMS_P2;Temp;Humidity;BMP_temperature;BMP_pressure;BME280_temperature;BME280_humidity;BME280_pressure;Samples;Min_cycle;Max_cycle;Signal;HPM_P1;HPM_P2
2024/03/28 00:00:17;;;;;;;1.88;1.67;;;;;;;;;;4999378;28;20630;-84
2024/03/28 00:02:43;;;;;;;1.95;1.75;;;;;;;;;;4973649;28;20429;-83
2024/03/28 00:05:08;;;;;;;3.75;2.00;;;;;;;;;;4982570;28;20101;-84
2024/03/28 00:07:35;;;;;;;2.38;1.75;;;;;;;;;;4998709;28;20046;-83
2024/03/28 00:10:01;;;;;;;2.55;1.90;;;;;;;;;;4981669;28;20051;-83
2024/03/28 00:12:26;;;;;;;1.95;1.75;;;;;;;;;;4980260;28;20062;-83
2024/03/28 00:14:52;;;;;;;5.68;2.00;;;;;;;;;;4979816;28;20085;-83
2024/03/28 00:17:17;;;;;;;1.58;1.48;;;;;;;;;;4980591;28;20053;-83
2024/03/28 00:19:43;;;;;;;1.83;1.60;;;;;;;;;;4963132;28;20065;-83
2024/03/28 00:22:08;;;;;;;2.35;1.45;;;;;;;;;;4978781;28;20054;-81
2024/03/28 00:24:34;;;;;;;2.15;1.75;;;;;;;;;;4978531;28;20055;-81
2024/03/28 00:26:59;;;;;;;1.35;1.25;;;;;;;;;;4981842;28;20147;-82
2024/03/28 00:29:25;;;;;;;1.98;1.50;;;;;;;;;;4994173;28;20047;-81
2024/03/28 00:31:50;;;;;;;2.00;1.60;;;;;;;;;;4995546;28;20081;-81
2024/03/28 00:34:16;;;;;;;1.40;1.30;;;;;;;;;;4978638;28;20058;-81
2024/03/28 00:36:42;;;;;;;2.85;1.65;;;;;;;;;;4980138;28;20065;-82
2024/03/28 00:39:09;;;;;;;3.45;1.73;;;;;;;;;;4981185;28;20046;-80
2024/03/28 00:41:34;;;;;;;2.40;1.92;;;;;;;;;;4965708;28;20061;-80
2024/03/28 00:44:00;;;;;;;2.25;2.05;;;;;;;;;;4977940;28;20125;-81
2024/03/28 00:46:25;;;;;;;3.17;2.28;;;;;;;;;;4962316;28;20046;-81
2024/03/28 00:48:51;;;;;;;2.15;1.95;;;;;;;;;;4978681;28;20057;-80
2024/03/28 00:51:16;;;;;;;2.53;1.60;;;;;;;;;;4978663;28;20054;-80
2024/03/28 00:53:42;;;;;;;3.25;2.25;;;;;;;;;;4994323;28;20065;-83
2024/03/28 00:56:08;;;;;;;1.77;1.67;;;;;;;;;;5006085;28;20385;-82
2024/03/28 00:58:33;;;;;;;1.90;1.70;;;;;;;;;;4987794;28;20078;-81
2024/03/28 01:01:01;;;;;;;2.25;1.60;;;;;;;;;;4979508;28;20054;-81
2024/03/28 01:03:27;;;;;;;3.10;1.80;;;;;;;;;;4963311;28;20500;-81
2024/03/28 01:05:59;;;;;;;2.15;1.58;;;;;;;;;;4978506;28;20050;-81
2024/03/28 01:08:25;;;;;;;2.67;1.65;;;;;;;;;;4993058;28;20496;-81
2024/03/28 01:10:50;;;;;;;1.90;1.42;;;;;;;;;;4962588;28;20050;-82
2024/03/28 01:13:16;;;;;;;4.10;1.90;;;;;;;;;;4978789;28;20050;-82
2024/03/28 01:15:41;;;;;;;2.72;1.50;;;;;;;;;;4976923;28;20105;-81
2024/03/28 01:18:07;;;;;;;3.80;1.60;;;;;;;;;;4962267;28;20540;-82
2024/03/28 01:20:32;;;;;;;3.63;1.67;;;;;;;;;;4992985;28;20062;-82
2024/03/28 01:22:58;;;;;;;2.20;1.75;;;;;;;;;;4977170;28;20062;-81
2024/03/28 01:25:23;;;;;;;2.42;1.60;;;;;;;;;;4960493;28;20090;-82
2024/03/28 01:27:49;;;;;;;2.08;1.80;;;;;;;;;;4965203;28;20057;-83
2024/03/28 01:30:14;;;;;;;2.55;1.40;;;;;;;;;;4981274;28;20398;-83
2024/03/28 01:32:40;;;;;;;1.92;1.55;;;;;;;;;;4976976;28;20185;-82
2024/03/28 01:35:06;;;;;;;1.60;1.40;;;;;;;;;;4962104;28;20061;-82
2024/03/28 01:37:31;;;;;;;1.73;1.48;;;;;;;;;;4962825;28;20129;-83
2024/03/28 01:39:57;;;;;;;2.58;1.63;;;;;;;;;;4978621;28;20065;-83
2024/03/28 01:42:22;;;;;;;1.98;1.50;;;;;;;;;;4980345;28;20062;-85
2024/03/28 01:44:48;;;;;;;2.28;1.45;;;;;;;;;;4964392;28;20080;-82
2024/03/28 01:47:14;;;;;;;1.45;1.35;;;;;;;;;;4998239;28;20061;-83
2024/03/28 01:49:39;;;;;;;1.27;1.17;;;;;;;;;;4965252;28;20058;-83
2024/03/28 01:52:05;;;;;;;2.50;1.42;;;;;;;;;;4998094;28;20054;-84
2024/03/28 01:54:31;;;;;;;2.60;1.50;;;;;;;;;;4964927;28;20583;-83
2024/03/28 01:56:57;;;;;;;4.53;1.45;;;;;;;;;;4968111;28;20050;-83
2024/03/28 01:59:22;;;;;;;2.90;1.48;;;;;;;;;;4990194;28;20342;-83
2024/03/28 02:01:48;;;;;;;2.80;1.40;;;;;;;;;;4982683;28;20149;-82
2024/03/28 02:04:13;;;;;;;3.55;1.50;;;;;;;;;;4982049;28;20397;-82
2024/03/28 02:06:39;;;;;;;2.72;1.40;;;;;;;;;;4979889;28;20034;-85
2024/03/28 02:09:08;;;;;;;3.20;1.42;;;;;;;;;;5021542;28;20057;-84
2024/03/28 02:11:34;;;;;;;3.40;1.75;;;;;;;;;;5035692;28;20042;-83
2024/03/28 02:14:00;;;;;;;2.83;1.70;;;;;;;;;;5002825;28;20065;-83
2024/03/28 02:16:25;;;;;;;2.00;1.40;;;;;;;;;;5003009;28;20049;-83
2024/03/28 02:18:57;;;;;;;1.73;1.48;;;;;;;;;;4983094;28;20072;-83
2024/03/28 02:21:23;;;;;;;1.88;1.63;;;;;;;;;;5004219;28;20492;-85
2024/03/28 02:23:52;;;;;;;2.28;1.80;;;;;;;;;;4987401;28;20058;-83
2024/03/28 02:26:21;;;;;;;1.77;1.65;;;;;;;;;;4994102;28;20057;-83
2024/03/28 02:28:46;;;;;;;2.33;1.80;;;;;;;;;;5001093;28;20076;-83
2024/03/28 02:31:12;;;;;;;2.17;1.98;;;;;;;;;;5000963;28;20054;-82
2024/03/28 02:33:38;;;;;;;2.30;1.90;;;;;;;;;;5000636;28;20050;-83
2024/03/28 02:36:04;;;;;;;2.05;1.60;;;;;;;;;;4984909;28;20522;-83
2024/03/28 02:38:30;;;;;;;2.28;2.08;;;;;;;;;;4998812;28;20100;-83
2024/03/28 02:40:55;;;;;;;3.22;2.15;;;;;;;;;;5004774;28;20045;-83
2024/03/28 02:43:21;;;;;;;3.10;2.42;;;;;;;;;;4989038;28;20060;-83
2024/03/28 02:45:46;;;;;;;3.33;2.22;;;;;;;;;;5013598;28;20057;-81
2024/03/28 02:48:12;;;;;;;3.20;2.50;;;;;;;;;;5006764;28;20050;-81
2024/03/28 02:50:37;;;;;;;2.88;2.10;;;;;;;;;;4984623;28;20076;-80
2024/03/28 02:53:03;;;;;;;3.40;2.80;;;;;;;;;;4983827;28;20053;-81
2024/03/28 02:55:28;;;;;;;3.00;2.38;;;;;;;;;;4996974;28;20085;-82
2024/03/28 02:57:54;;;;;;;2.92;2.30;;;;;;;;;;4989083;28;20057;-82
2024/03/28 03:00:19;;;;;;;2.35;2.13;;;;;;;;;;4996942;28;20050;-82
2024/03/28 03:02:45;;;;;;;3.13;2.40;;;;;;;;;;5014460;28;20515;-81
2024/03/28 03:05:10;;;;;;;2.45;2.25;;;;;;;;;;4981977;28;20120;-81
2024/03/28 03:07:36;;;;;;;3.35;2.40;;;;;;;;;;4981264;28;20050;-83
2024/03/28 03:10:02;;;;;;;3.05;2.30;;;;;;;;;;4982893;28;20052;-82
2024/03/28 03:12:27;;;;;;;2.85;2.55;;;;;;;;;;4999962;28;20054;-82
2024/03/28 03:14:53;;;;;;;2.58;2.17;;;;;;;;;;4996304;28;20054;-83
2024/03/28 03:17:18;;;;;;;3.42;2.35;;;;;;;;;;4977621;28;20065;-83
2024/03/28 03:19:44;;;;;;;2.65;1.88;;;;;;;;;;4994362;28;20523;-83
2024/03/28 03:22:11;;;;;;;2.78;2.40;;;;;;;;;;4980188;28;20543;-81
2024/03/28 03:24:38;;;;;;;2.67;2.33;;;;;;;;;;4996482;28;20050;-82
2024/03/28 03:27:04;;;;;;;3.13;2.60;;;;;;;;;;4963358;28;20145;-81
2024/03/28 03:34:58;;;;;;;4.25;2.78;;;;;;;;;;4996849;28;20409;-82
2024/03/28 03:37:25;;;;;;;2.58;2.38;;;;;;;;;;4989084;28;20053;-82
2024/03/28 03:39:59;;;;;;;5.47;3.25;;;;;;;;;;4989215;28;20081;-82
2024/03/28 03:42:25;;;;;;;4.22;3.00;;;;;;;;;;4997540;28;20057;-83
2024/03/28 03:44:50;;;;;;;3.50;2.80;;;;;;;;;;4989712;28;20054;-83
2024/03/28 03:47:16;;;;;;;3.75;2.70;;;;;;;;;;5006415;28;20085;-82
2024/03/28 03:49:44;;;;;;;3.67;2.85;;;;;;;;;;5013858;28;20500;-82
2024/03/28 03:52:10;;;;;;;3.47;3.10;;;;;;;;;;4998853;28;20058;-83
2024/03/28 03:54:35;;;;;;;3.25;2.95;;;;;;;;;;4991639;28;20066;-82
2024/03/28 03:57:01;;;;;;;3.88;2.80;;;;;;;;;;4992018;28;20060;-82
2024/03/28 03:59:26;;;;;;;3.20;2.80;;;;;;;;;;4981669;28;20057;-80
2024/03/28 04:01:52;;;;;;;2.78;2.58;;;;;;;;;;4996905;28;20068;-81
2024/03/28 04:04:17;;;;;;;3.28;2.95;;;;;;;;;;4980130;28;20049;-80
2024/03/28 04:06:44;;;;;;;2.97;2.72;;;;;;;;;;4996744;28;20067;-81
2024/03/28 04:09:11;;;;;;;3.45;2.72;;;;;;;;;;4998506;28;20509;-80
2024/03/28 04:11:37;;;;;;;3.50;2.95;;;;;;;;;;4963144;28;20058;-82
2024/03/28 04:14:02;;;;;;;3.03;2.72;;;;;;;;;;4963786;28;20054;-81
2024/03/28 04:16:28;;;;;;;4.38;3.20;;;;;;;;;;4962148;28;20600;-81
2024/03/28 04:18:54;;;;;;;3.97;3.30;;;;;;;;;;5003570;28;20092;-82
2024/03/28 04:21:19;;;;;;;3.97;2.75;;;;;;;;;;5002157;28;20085;-82
2024/03/28 04:23:45;;;;;;;3.63;2.95;;;;;;;;;;5009992;28;20054;-83
2024/03/28 04:26:20;;;;;;;4.65;3.45;;;;;;;;;;4957577;28;20467;-82
2024/03/28 04:28:45;;;;;;;3.45;2.88;;;;;;;;;;4977719;28;20054;-82
2024/03/28 04:31:11;;;;;;;3.05;2.70;;;;;;;;;;4977109;28;20073;-83
2024/03/28 04:33:37;;;;;;;3.65;2.67;;;;;;;;;;4984572;28;20054;-82
2024/03/28 04:36:02;;;;;;;5.93;2.75;;;;;;;;;;4977952;28;20511;-80
2024/03/28 04:38:31;;;;;;;5.68;3.38;;;;;;;;;;4993073;28;20069;-80
2024/03/28 04:40:56;;;;;;;3.78;2.75;;;;;;;;;;5003420;28;20051;-82
2024/03/28 04:43:22;;;;;;;2.88;2.58;;;;;;;;;;4984726;28;20061;-82
2024/03/28 04:45:48;;;;;;;4.22;3.40;;;;;;;;;;4973828;28;20059;-81
2024/03/28 04:48:13;;;;;;;4.10;2.58;;;;;;;;;;4961638;28;20054;-82
2024/03/28 04:50:39;;;;;;;3.90;2.63;;;;;;;;;;4961003;28;20050;-81
2024/03/28 04:53:05;;;;;;;3.90;2.97;;;;;;;;;;4961692;28;20049;-81
2024/03/28 04:55:31;;;;;;;3.10;2.80;;;;;;;;;;4969232;28;20065;-82
2024/03/28 04:57:59;;;;;;;3.63;3.15;;;;;;;;;;4978145;28;20057;-81
2024/03/28 05:00:25;;;;;;;3.65;3.33;;;;;;;;;;4980570;28;20058;-81
2024/03/28 05:02:50;;;;;;;3.88;3.22;;;;;;;;;;4961814;28;20050;-82
2024/03/28 05:05:17;;;;;;;4.82;3.38;;;;;;;;;;4961009;28;20057;-82
2024/03/28 05:07:42;;;;;;;4.00;2.92;;;;;;;;;;4979602;28;20058;-82
2024/03/28 05:10:08;;;;;;;4.22;3.00;;;;;;;;;;4967520;28;20516;-82
2024/03/28 05:12:34;;;;;;;5.03;3.45;;;;;;;;;;4967805;28;20061;-83
2024/03/28 05:15:01;;;;;;;4.43;3.15;;;;;;;;;;5011656;28;20030;-83
2024/03/28 05:17:27;;;;;;;4.05;3.10;;;;;;;;;;5000573;28;20050;-83
2024/03/28 05:19:52;;;;;;;4.13;3.58;;;;;;;;;;5023263;28;20034;-79
2024/03/28 05:22:18;;;;;;;5.13;3.42;;;;;;;;;;4991729;28;20542;-80
2024/03/28 05:24:43;;;;;;;3.58;3.03;;;;;;;;;;4990299;28;20128;-80
2024/03/28 05:27:12;;;;;;;3.35;2.90;;;;;;;;;;4990392;28;20096;-80
2024/03/28 05:29:38;;;;;;;4.68;3.38;;;;;;;;;;5019059;28;20058;-80
2024/03/28 05:32:03;;;;;;;4.13;3.28;;;;;;;;;;4984834;28;20466;-80
2024/03/28 05:34:29;;;;;;;4.03;3.10;;;;;;;;;;4973470;28;20069;-80
2024/03/28 05:36:55;;;;;;;3.63;2.88;;;;;;;;;;5002515;28;20069;-80
2024/03/28 05:39:20;;;;;;;3.88;3.20;;;;;;;;;;5009081;28;20054;-79
2024/03/28 05:41:46;;;;;;;4.20;3.00;;;;;;;;;;4966589;28;20135;-80
2024/03/28 05:44:11;;;;;;;4.57;3.35;;;;;;;;;;4999100;28;20057;-80
2024/03/28 05:46:37;;;;;;;3.55;2.75;;;;;;;;;;4984369;28;20064;-80
2024/03/28 05:49:02;;;;;;;4.20;3.33;;;;;;;;;;4973652;28;20054;-80
2024/03/28 05:51:28;;;;;;;5.07;3.20;;;;;;;;;;4983934;28;20500;-80
2024/03/28 05:53:53;;;;;;;3.03;2.72;;;;;;;;;;4985411;28;20050;-80
2024/03/28 05:56:19;;;;;;;3.63;3.00;;;;;;;;;;4985460;28;20069;-80
2024/03/28 05:58:45;;;;;;;4.32;3.35;;;;;;;;;;4992305;28;20057;-80
2024/03/28 06:01:10;;;;;;;7.07;3.13;;;;;;;;;;4994949;28;20267;-80
2024/03/28 06:03:36;;;;;;;3.95;3.17;;;;;;;;;;4997286;28;20054;-80
2024/03/28 06:06:02;;;;;;;3.78;3.10;;;;;;;;;;5003826;28;20160;-80
2024/03/28 06:08:27;;;;;;;4.00;3.10;;;;;;;;;;4969672;28;20133;-81
2024/03/28 06:10:53;;;;;;;4.80;3.60;;;;;;;;;;4983412;28;20409;-80
2024/03/28 06:13:19;;;;;;;6.07;3.13;;;;;;;;;;4983903;28;20058;-80
2024/03/28 06:15:44;;;;;;;4.40;3.33;;;;;;;;;;4968307;28;20045;-81
2024/03/28 06:18:11;;;;;;;3.55;3.25;;;;;;;;;;4992203;28;20054;-79
2024/03/28 06:20:37;;;;;;;5.38;3.05;;;;;;;;;;4982937;28;20066;-80
2024/03/28 06:23:03;;;;;;;3.78;3.35;;;;;;;;;;4964258;28;20051;-81
2024/03/28 06:25:28;;;;;;;4.63;2.67;;;;;;;;;;4962383;28;20448;-81
2024/03/28 06:27:54;;;;;;;3.30;2.80;;;;;;;;;;4984094;28;20420;-83
2024/03/28 06:30:26;;;;;;;3.15;2.83;;;;;;;;;;4993849;28;20054;-82
2024/03/28 06:32:52;;;;;;;5.28;3.08;;;;;;;;;;4962757;28;20065;-84
2024/03/28 06:35:17;;;;;;;4.05;3.08;;;;;;;;;;4965421;28;20066;-79
2024/03/28 06:37:43;;;;;;;4.15;3.50;;;;;;;;;;4998552;28;20595;-78
2024/03/28 06:40:09;;;;;;;3.10;2.63;;;;;;;;;;5001026;28;20126;-79
2024/03/28 06:42:35;;;;;;;3.35;2.50;;;;;;;;;;4998625;28;20535;-79
2024/03/28 06:45:01;;;;;;;4.05;3.05;;;;;;;;;;4996218;28;20054;-81
2024/03/28 06:47:26;;;;;;;3.92;2.60;;;;;;;;;;4988837;28;20069;-79
2024/03/28 06:49:52;;;;;;;2.20;2.00;;;;;;;;;;4976729;28;20054;-78
2024/03/28 06:52:17;;;;;;;2.60;2.25;;;;;;;;;;4982224;28;20101;-79
2024/03/28 06:54:43;;;;;;;3.78;2.15;;;;;;;;;;4962475;28;20107;-78
2024/03/28 06:57:08;;;;;;;4.32;2.20;;;;;;;;;;4990908;28;20299;-78
2024/03/28 06:59:34;;;;;;;3.72;2.55;;;;;;;;;;4963352;28;20066;-79
2024/03/28 07:01:59;;;;;;;2.30;2.10;;;;;;;;;;4962436;28;20116;-78
2024/03/28 07:04:25;;;;;;;2.40;2.20;;;;;;;;;;4961560;28;20057;-78
2024/03/28 07:06:51;;;;;;;2.83;2.53;;;;;;;;;;4967885;28;20284;-78
2024/03/28 07:09:17;;;;;;;2.80;2.38;;;;;;;;;;4961334;28;20050;-79
2024/03/28 07:11:45;;;;;;;2.83;2.22;;;;;;;;;;4965322;28;20066;-79
2024/03/28 07:14:12;;;;;;;4.60;2.83;;;;;;;;;;4998163;28;20081;-78
2024/03/28 07:16:38;;;;;;;3.70;2.42;;;;;;;;;;4976256;28;20054;-79
2024/03/28 07:19:03;;;;;;;3.13;2.70;;;;;;;;;;5004115;28;20058;-78
2024/03/28 07:21:29;;;;;;;3.42;2.88;;;;;;;;;;4993829;28;20081;-78
2024/03/28 07:23:54;;;;;;;3.70;2.90;;;;;;;;;;4993669;28;20054;-78
2024/03/28 07:26:21;;;;;;;3.97;2.90;;;;;;;;;;4979814;28;20038;-79
2024/03/28 07:28:46;;;;;;;3.83;3.22;;;;;;;;;;4999634;28;20421;-77
2024/03/28 07:31:12;;;;;;;5.28;4.13;;;;;;;;;;4993809;28;20057;-78
2024/03/28 07:33:37;;;;;;;3.90;2.92;;;;;;;;;;4975369;28;20094;-79
2024/03/28 07:36:04;;;;;;;3.28;2.85;;;;;;;;;;4959706;28;20389;-78
2024/03/28 07:38:29;;;;;;;6.18;3.22;;;;;;;;;;4974692;28;20073;-78
2024/03/28 07:40:55;;;;;;;3.15;2.78;;;;;;;;;;4958997;28;20059;-77
2024/03/28 07:43:21;;;;;;;3.55;3.13;;;;;;;;;;4958951;28;20070;-75
2024/03/28 07:45:47;;;;;;;3.92;2.88;;;;;;;;;;4990330;28;20038;-74
2024/03/28 07:48:13;;;;;;;8.13;2.90;;;;;;;;;;4974613;28;20117;-74
2024/03/28 07:50:38;;;;;;;3.58;3.03;;;;;;;;;;4974839;28;20472;-78
2024/03/28 07:53:04;;;;;;;5.68;3.28;;;;;;;;;;4975071;28;20531;-78
2024/03/28 07:55:30;;;;;;;3.25;2.70;;;;;;;;;;4975389;28;20096;-77
2024/03/28 07:57:55;;;;;;;4.32;2.65;;;;;;;;;;4968398;28;20062;-82
2024/03/28 08:00:24;;;;;;;4.85;2.72;;;;;;;;;;4972988;28;20059;-78
2024/03/28 08:02:49;;;;;;;3.25;2.75;;;;;;;;;;4988888;28;20519;-79
2024/03/28 08:05:16;;;;;;;4.18;2.40;;;;;;;;;;4977799;28;20038;-79
2024/03/28 08:07:41;;;;;;;4.35;2.53;;;;;;;;;;4988975;28;20045;-79
2024/03/28 08:10:09;;;;;;;3.53;2.70;;;;;;;;;;4958336;28;20480;-77
2024/03/28 08:12:35;;;;;;;2.67;1.88;;;;;;;;;;5010403;28;20056;-79
2024/03/28 08:15:02;;;;;;;3.33;2.20;;;;;;;;;;4983198;28;20062;-77
2024/03/28 08:17:28;;;;;;;2.80;2.03;;;;;;;;;;4987167;28;20054;-78
2024/03/28 08:19:54;;;;;;;3.00;2.40;;;;;;;;;;4986501;28;20117;-79
2024/03/28 08:22:21;;;;;;;3.10;2.60;;;;;;;;;;4995971;28;20053;-79
2024/03/28 08:24:47;;;;;;;4.63;2.63;;;;;;;;;;4998001;28;20523;-79
2024/03/28 08:27:13;;;;;;;3.58;1.70;;;;;;;;;;4984447;28;20046;-79
2024/03/28 08:29:39;;;;;;;2.58;1.60;;;;;;;;;;5007148;28;20046;-81
2024/03/28 08:32:05;;;;;;;4.13;1.70;;;;;;;;;;4986687;28;20068;-80
2024/03/28 08:34:31;;;;;;;2.28;1.80;;;;;;;;;;4981765;28;20062;-78
2024/03/28 08:36:57;;;;;;;2.03;1.40;;;;;;;;;;4962764;28;20046;-78
2024/03/28 08:39:24;;;;;;;1.40;1.15;;;;;;;;;;5000900;28;20054;-79
2024/03/28 08:41:53;;;;;;;1.30;1.13;;;;;;;;;;4980340;28;20543;-79
2024/03/28 08:44:19;;;;;;;1.25;1.00;;;;;;;;;;4981783;28;20058;-79
2024/03/28 08:46:45;;;;;;;1.58;1.30;;;;;;;;;;4978839;28;20046;-79
2024/03/28 08:49:11;;;;;;;2.33;1.23;;;;;;;;;;5001854;28;20058;-79
2024/03/28 08:51:37;;;;;;;1.50;1.20;;;;;;;;;;4981352;28;20045;-79
2024/03/28 08:54:05;;;;;;;2.70;1.13;;;;;;;;;;4998249;28;20054;-80
2024/03/28 08:56:31;;;;;;;1.73;1.10;;;;;;;;;;5004875;28;20053;-80
2024/03/28 08:58:58;;;;;;;0.73;0.70;;;;;;;;;;4985111;28;20049;-80
2024/03/28 09:01:24;;;;;;;1.17;0.90;;;;;;;;;;5005019;28;20069;-81
2024/03/28 09:03:52;;;;;;;1.38;0.90;;;;;;;;;;4980492;28;20141;-79
2024/03/28 09:06:19;;;;;;;1.20;0.85;;;;;;;;;;4993747;28;20093;-80
2024/03/28 09:08:45;;;;;;;2.10;0.82;;;;;;;;;;4978837;28;20050;-79
2024/03/28 09:11:12;;;;;;;1.25;1.15;;;;;;;;;;4961993;28;20061;-79
2024/03/28 09:13:38;;;;;;;3.45;0.73;;;;;;;;;;4961890;28;20782;-79
2024/03/28 09:16:03;;;;;;;0.70;0.70;;;;;;;;;;4986605;28;20076;-79
2024/03/28 09:18:29;;;;;;;0.73;0.70;;;;;;;;;;4966125;28;20114;-80
2024/03/28 09:20:55;;;;;;;0.77;0.77;;;;;;;;;;5004599;28;20058;-80
2024/03/28 09:23:20;;;;;;;0.95;0.63;;;;;;;;;;4989928;28;20114;-80
2024/03/28 09:25:46;;;;;;;0.75;0.75;;;;;;;;;;4965543;28;20349;-80
2024/03/28 09:28:12;;;;;;;0.35;0.35;;;;;;;;;;5003859;28;20057;-79
2024/03/28 09:30:37;;;;;;;1.67;0.60;;;;;;;;;;4966123;28;20061;-80
2024/03/28 09:33:03;;;;;;;1.88;0.55;;;;;;;;;;4966796;28;20054;-80
2024/03/28 09:35:29;;;;;;;0.95;0.45;;;;;;;;;;4996088;28;20062;-81
2024/03/28 09:37:56;;;;;;;13.40;1.20;;;;;;;;;;4965071;28;20057;-79
2024/03/28 09:40:22;;;;;;;0.98;0.50;;;;;;;;;;4988540;28;20050;-80
2024/03/28 09:42:48;;;;;;;1.67;0.47;;;;;;;;;;4996710;28;20376;-80
2024/03/28 09:45:14;;;;;;;1.80;1.15;;;;;;;;;;4951530;28;20055;-80
2024/03/28 09:47:40;;;;;;;0.50;0.50;;;;;;;;;;4954438;28;20062;-79
2024/03/28 09:50:09;;;;;;;0.65;0.40;;;;;;;;;;4986875;28;20133;-79
2024/03/28 09:52:34;;;;;;;0.20;0.20;;;;;;;;;;4983587;28;20073;-79
2024/03/28 09:55:00;;;;;;;0.32;0.32;;;;;;;;;;4960815;28;20054;-79
2024/03/28 09:57:26;;;;;;;2.95;1.27;;;;;;;;;;4982988;28;20058;-80
2024/03/28 09:59:51;;;;;;;0.60;0.40;;;;;;;;;;4994049;28;20046;-79
2024/03/28 10:02:22;;;;;;;0.40;0.40;;;;;;;;;;4959127;28;20120;-79
2024/03/28 10:04:48;;;;;;;0.60;0.50;;;;;;;;;;4982935;28;20069;-80
2024/03/28 10:07:16;;;;;;;2.20;1.02;;;;;;;;;;4957066;28;20046;-79
2024/03/28 10:09:41;;;;;;;2.35;0.73;;;;;;;;;;4956418;28;20419;-79
2024/03/28 10:12:11;;;;;;;1.00;0.43;;;;;;;;;;4953406;28;20183;-79
2024/03/28 10:14:38;;;;;;;0.70;0.40;;;;;;;;;;4984505;28;20463;-79
2024/03/28 10:17:05;;;;;;;0.50;0.50;;;;;;;;;;5005275;28;20100;-80
2024/03/28 10:19:33;;;;;;;0.95;0.50;;;;;;;;;;4955015;28;20408;-80
2024/03/28 10:22:06;;;;;;;0.52;0.40;;;;;;;;;;5004523;28;20062;-80
2024/03/28 10:24:33;;;;;;;;;;;;;;;;;;4966505;28;20053;-80
2024/03/28 10:27:19;;;;;;;1.10;0.40;;;;;;;;;;5008147;28;20401;-80
2024/03/28 10:29:53;;;;;;;0.10;0.10;;;;;;;;;;4995883;28;20054;-81
2024/03/28 10:32:18;;;;;;;1.35;0.20;;;;;;;;;;5006750;28;20057;-80
2024/03/28 10:34:48;;;;;;;0.52;0.40;;;;;;;;;;4960094;28;20080;-81
2024/03/28 10:37:16;;;;;;;0.25;0.25;;;;;;;;;;5003277;28;20050;-79
2024/03/28 10:39:42;;;;;;;0.50;0.17;;;;;;;;;;4994249;28;20072;-81
2024/03/28 10:42:08;;;;;;;0.20;0.20;;;;;;;;;;5007180;28;20046;-80
2024/03/28 10:44:34;;;;;;;0.35;0.20;;;;;;;;;;4994584;28;20149;-81
2024/03/28 10:47:00;;;;;;;0.15;0.10;;;;;;;;;;4998145;28;20053;-80
2024/03/28 10:49:27;;;;;;;1.73;0.43;;;;;;;;;;5005067;28;20065;-79
2024/03/28 10:51:54;;;;;;;0.03;0.03;;;;;;;;;;5001451;28;20050;-80
2024/03/28 10:54:27;;;;;;;0.20;0.10;;;;;;;;;;4987174;28;20488;-80
2024/03/28 10:56:55;;;;;;;2.55;1.10;;;;;;;;;;4986566;28;20054;-79
2024/03/28 10:59:21;;;;;;;1.58;0.82;;;;;;;;;;4988290;28;20049;-80
2024/03/28 11:01:47;;;;;;;0.43;0.30;;;;;;;;;;5004971;28;20046;-80
2024/03/28 11:04:16;;;;;;;0.20;0.20;;;;;;;;;;4990502;28;20053;-81
2024/03/28 11:06:42;;;;;;;1.65;0.20;;;;;;;;;;4983148;28;20436;-79
2024/03/28 11:09:08;;;;;;;0.20;0.20;;;;;;;;;;5004470;28;20068;-78
2024/03/28 11:11:33;;;;;;;0.10;0.10;;;;;;;;;;4947918;28;20054;-80
2024/03/28 11:13:59;;;;;;;0.17;0.10;;;;;;;;;;4992721;28;20077;-80
2024/03/28 11:16:24;;;;;;;0.38;0.30;;;;;;;;;;4982473;28;20074;-80
2024/03/28 11:18:50;;;;;;;0.38;0.38;;;;;;;;;;5007079;28;20156;-81
2024/03/28 11:21:25;;;;;;;0.95;0.65;;;;;;;;;;4987594;28;20491;-80
2024/03/28 11:23:53;;;;;;;0.52;0.50;;;;;;;;;;4982024;28;20050;-81
2024/03/28 11:26:24;;;;;;;0.68;0.30;;;;;;;;;;4972392;28;20047;-81
2024/03/28 11:28:59;;;;;;;0.77;0.30;;;;;;;;;;4989111;28;20508;-78
2024/03/28 11:31:25;;;;;;;0.98;0.38;;;;;;;;;;4957672;28;20053;-79
2024/03/28 11:34:01;;;;;;;0.63;0.40;;;;;;;;;;5013388;28;20046;-81
2024/03/28 11:36:27;;;;;;;0.30;0.30;;;;;;;;;;5023480;28;20046;-79
2024/03/28 11:38:53;;;;;;;0.45;0.30;;;;;;;;;;5025948;28;20073;-77
2024/03/28 11:41:19;;;;;;;0.70;0.30;;;;;;;;;;5012717;28;20041;-75
2024/03/28 11:43:45;;;;;;;0.77;0.20;;;;;;;;;;4961572;28;1201857;-74
2024/03/28 11:46:11;;;;;;;0.40;0.40;;;;;;;;;;4961720;28;20567;-79
2024/03/28 11:48:37;;;;;;;3.17;0.80;;;;;;;;;;4956668;28;20065;-82
2024/03/28 11:51:03;;;;;;;0.40;0.30;;;;;;;;;;4980635;28;20053;-79
2024/03/28 11:53:29;;;;;;;1.48;0.47;;;;;;;;;;4986374;28;20054;-79
2024/03/28 11:55:55;;;;;;;0.50;0.50;;;;;;;;;;4995223;28;20050;-79
2024/03/28 11:58:23;;;;;;;0.60;0.60;;;;;;;;;;4984166;28;20054;-79
2024/03/28 12:00:49;;;;;;;1.13;1.02;;;;;;;;;;4976755;28;20153;-79
2024/03/28 12:03:14;;;;;;;0.80;0.80;;;;;;;;;;4960100;28;20141;-79
2024/03/28 12:05:40;;;;;;;1.75;1.52;;;;;;;;;;4978442;28;20045;-77
2024/03/28 12:08:06;;;;;;;1.38;0.40;;;;;;;;;;4997831;28;20104;-78
2024/03/28 12:10:32;;;;;;;0.40;0.40;;;;;;;;;;4986280;28;20247;-79
2024/03/28 12:12:59;;;;;;;0.90;0.90;;;;;;;;;;4976379;28;20057;-80
2024/03/28 12:15:25;;;;;;;0.65;0.40;;;;;;;;;;4955103;28;20046;-79
2024/03/28 12:17:50;;;;;;;1.23;0.40;;;;;;;;;;4964478;28;20057;-80
2024/03/28 12:20:21;;;;;;;1.25;0.20;;;;;;;;;;4966119;28;20084;-79
2024/03/28 12:22:48;;;;;;;0.13;0.10;;;;;;;;;;4986267;28;20054;-79
2024/03/28 12:25:15;;;;;;;0.20;0.20;;;;;;;;;;4984940;28;20412;-79
2024/03/28 12:27:41;;;;;;;0.32;0.20;;;;;;;;;;4987562;28;20051;-79
2024/03/28 12:30:10;;;;;;;0.20;0.20;;;;;;;;;;4977054;28;20050;-79
2024/03/28 12:32:40;;;;;;;0.30;0.30;;;;;;;;;;4969177;28;20443;-79
2024/03/28 12:35:06;;;;;;;0.77;0.25;;;;;;;;;;4957508;28;20496;-80
2024/03/28 12:37:33;;;;;;;1.08;0.35;;;;;;;;;;5001802;28;20057;-80
2024/03/28 12:40:03;;;;;;;0.85;0.28;;;;;;;;;;4996098;28;20080;-81
2024/03/28 12:42:31;;;;;;;0.10;0.10;;;;;;;;;;4994637;28;20064;-79
2024/03/28 12:44:58;;;;;;;3.80;0.40;;;;;;;;;;4994163;28;20049;-80
2024/03/28 12:47:25;;;;;;;0.40;0.20;;;;;;;;;;5004261;28;21189;-79
2024/03/28 12:49:51;;;;;;;0.40;0.20;;;;;;;;;;5001329;28;20042;-80
2024/03/28 12:52:20;;;;;;;0.10;0.10;;;;;;;;;;4968935;28;20058;-79
2024/03/28 12:54:46;;;;;;;1.05;0.40;;;;;;;;;;4964870;28;20046;-86
2024/03/28 12:57:11;;;;;;;0.30;0.15;;;;;;;;;;4956973;28;20085;-79
2024/03/28 12:59:37;;;;;;;0.40;0.32;;;;;;;;;;4992618;28;20057;-80
2024/03/28 13:02:03;;;;;;;0.40;0.13;;;;;;;;;;4974003;28;20058;-80
2024/03/28 13:04:29;;;;;;;2.35;0.50;;;;;;;;;;5011212;28;20044;-80
2024/03/28 13:06:55;;;;;;;0.73;0.20;;;;;;;;;;5022233;28;20058;-80
2024/03/28 13:09:22;;;;;;;1.23;0.10;;;;;;;;;;4997212;28;20046;-80
2024/03/28 13:11:48;;;;;;;2.60;0.30;;;;;;;;;;4967393;28;20038;-81
2024/03/28 13:14:14;;;;;;;0.70;0.22;;;;;;;;;;5021430;28;20061;-81
2024/03/28 13:16:40;;;;;;;0.10;0.10;;;;;;;;;;5001244;28;20066;-80
2024/03/28 13:19:06;;;;;;;1.85;0.10;;;;;;;;;;4980356;28;20046;-80
2024/03/28 13:21:31;;;;;;;0.40;0.30;;;;;;;;;;4975226;28;20061;-81
2024/03/28 13:23:57;;;;;;;1.25;0.20;;;;;;;;;;4961379;28;20059;-81
2024/03/28 13:26:23;;;;;;;1.85;0.20;;;;;;;;;;4983568;28;20042;-80
2024/03/28 13:28:49;;;;;;;0.00;0.00;;;;;;;;;;4980852;28;20061;-80
2024/03/28 13:31:15;;;;;;;0.47;0.20;;;;;;;;;;4961608;28;20109;-80
2024/03/28 13:33:40;;;;;;;0.32;0.30;;;;;;;;;;4962828;28;20050;-80
2024/03/28 13:36:08;;;;;;;0.52;0.52;;;;;;;;;;5000946;28;20068;-80
2024/03/28 13:38:33;;;;;;;0.75;0.20;;;;;;;;;;4996448;28;20054;-80
2024/03/28 13:40:59;;;;;;;0.50;0.50;;;;;;;;;;4990796;28;20057;-81
2024/03/28 13:43:24;;;;;;;1.52;0.30;;;;;;;;;;4982035;28;20077;-79
2024/03/28 13:45:50;;;;;;;0.30;0.30;;;;;;;;;;4978776;28;20052;-81
2024/03/28 13:48:22;;;;;;;1.00;0.80;;;;;;;;;;4957845;28;20121;-80
2024/03/28 13:50:47;;;;;;;0.25;0.22;;;;;;;;;;4985878;28;20061;-79
2024/03/28 13:53:13;;;;;;;0.50;0.35;;;;;;;;;;4969226;28;20046;-79
2024/03/28 13:55:38;;;;;;;0.30;0.20;;;;;;;;;;4989043;28;20061;-80
2024/03/28 13:58:04;;;;;;;0.20;0.10;;;;;;;;;;4991950;28;20058;-79
2024/03/28 14:00:30;;;;;;;1.85;0.20;;;;;;;;;;4993686;28;20115;-80
2024/03/28 14:02:56;;;;;;;0.28;0.00;;;;;;;;;;4993851;28;20405;-80
2024/03/28 14:05:22;;;;;;;1.23;0.20;;;;;;;;;;4963583;28;20098;-81
2024/03/28 14:07:47;;;;;;;0.30;0.15;;;;;;;;;;4958094;28;20066;-80
2024/03/28 14:10:13;;;;;;;0.10;0.10;;;;;;;;;;5002492;28;20043;-81
2024/03/28 14:12:39;;;;;;;0.17;0.10;;;;;;;;;;4985715;28;20053;-80
2024/03/28 14:15:05;;;;;;;0.63;0.20;;;;;;;;;;4979590;28;20093;-81
2024/03/28 14:17:31;;;;;;;0.40;0.30;;;;;;;;;;4986057;28;20069;-80
2024/03/28 14:19:56;;;;;;;1.13;0.22;;;;;;;;;;5001332;28;20142;-80
2024/03/28 14:22:23;;;;;;;0.90;0.20;;;;;;;;;;5005647;28;20050;-80
2024/03/28 14:24:54;;;;;;;0.20;0.20;;;;;;;;;;4972373;28;20045;-80
2024/03/28 14:27:20;;;;;;;0.00;0.00;;;;;;;;;;5011770;28;20054;-81
2024/03/28 14:29:46;;;;;;;1.52;0.20;;;;;;;;;;4971908;28;20056;-80
2024/03/28 14:32:12;;;;;;;1.27;0.40;;;;;;;;;;4964525;28;20046;-77
2024/03/28 14:34:37;;;;;;;2.10;0.20;;;;;;;;;;4983556;28;20421;-79
2024/03/28 14:37:03;;;;;;;0.17;0.10;;;;;;;;;;4996880;28;20050;-78
2024/03/28 14:39:29;;;;;;;2.72;0.63;;;;;;;;;;4966946;28;20030;-80
2024/03/28 14:41:54;;;;;;;0.55;0.35;;;;;;;;;;4999173;28;20061;-78